Time;durP1;ratioP1;P1;durP2;ratioP2;P2;SDS_P1;SDS_P2;PMS_P1;PMS_P2;Temp;Humidity;BMP_temperature;BMP_pressure;BME280_temperature;BME280_humidity;BME280_pressure;Samples;Min_cycle;Max_cycle;Signal;HPM_P1;HPM_P2
2023/01/15 00:00:46;;;;;;;31.15;19.25;;;;;;;0.59;98.75;93783.31;5030458;28;20049;-41
2023/01/15 00:03:11;;;;;;;35.88;18.38;;;;;;;0.63;97.90;93783.09;5030570;28;20068;-41
2023/01/15 00:05:37;;;;;;;28.08;16.42;;;;;;;0.63;97.89;93783.09;5026900;28;20021;-41
2023/01/15 00:08:03;;;;;;;26.50;15.80;;;;;;;0.73;97.62;93782.50;5026430;28;20029;-41
2023/01/15 00:10:28;;;;;;;30.23;17.42;;;;;;;0.76;97.29;93784.25;5028032;28;20032;-40
2023/01/15 00:12:54;;;;;;;25.30;15.35;;;;;;;0.59;97.46;93782.56;5030768;28;20417;-40
2023/01/15 00:15:19;;;;;;;28.52;16.77;;;;;;;0.57;98.19;93776.88;5026733;28;20033;-41
2023/01/15 00:17:44;;;;;;;27.90;16.00;;;;;;;0.64;98.38;93779.19;5027391;28;20091;-41
2023/01/15 00:20:10;;;;;;;25.85;15.13;;;;;;;0.78;98.44;93787.25;5029024;28;20064;-41
2023/01/15 00:22:36;;;;;;;21.67;13.27;;;;;;;0.67;98.13;93778.97;5033661;28;20044;-40
2023/01/15 00:27:45;;;;;;;21.45;12.48;;;;;;;0.92;97.87;93776.75;5026899;28;20028;-41
2023/01/15 00:30:14;;;;;;;36.90;16.17;;;;;;;0.99;98.97;93779.81;5032037;28;20034;-41
2023/01/15 00:32:40;;;;;;;61.17;32.40;;;;;;;1.19;97.62;93785.19;5035901;28;20076;-41
2023/01/15 00:35:06;;;;;;;38.65;22.38;;;;;;;1.20;96.08;93788.66;5030041;28;20080;-41
2023/01/15 00:37:32;;;;;;;45.20;24.48;;;;;;;1.29;96.59;93780.34;5027313;28;20034;-40
2023/01/15 00:39:57;;;;;;;40.92;24.55;;;;;;;1.30;95.17;93782.56;5023703;28;20098;-41
2023/01/15 00:42:23;;;;;;;46.60;25.08;;;;;;;1.18;96.35;93772.09;5033464;28;20025;-41
2023/01/15 00:44:48;;;;;;;36.20;21.23;;;;;;;1.19;96.61;93771.59;5034983;28;20024;-41
2023/01/15 00:47:14;;;;;;;29.33;16.20;;;;;;;1.30;96.98;93768.97;5035299;28;20091;-41
2023/01/15 00:49:43;;;;;;;34.05;17.05;;;;;;;1.26;97.17;93743.97;5030842;28;20621;-41
2023/01/15 00:52:09;;;;;;;38.53;17.98;;;;;;;1.51;97.56;93756.81;5026421;28;20025;-41
2023/01/15 00:54:34;;;;;;;30.42;19.75;;;;;;;1.62;97.09;93760.84;5030460;28;20600;-41
2023/01/15 00:57:00;;;;;;;34.00;20.05;;;;;;;1.61;95.55;93760.09;5028189;28;20048;-41
2023/01/15 00:59:25;;;;;;;29.88;17.67;;;;;;;1.59;95.16;93756.34;5024736;28;20029;-40
2023/01/15 01:01:51;;;;;;;29.50;18.40;;;;;;;1.69;95.10;93757.69;5028440;28;20664;-40
2023/01/15 01:04:16;;;;;;;32.35;19.52;;;;;;;1.72;94.51;93751.25;5020303;28;20072;-41
2023/01/15 01:06:42;;;;;;;32.78;19.80;;;;;;;1.51;94.22;93756.06;5029914;28;20107;-40
2023/01/15 01:09:13;;;;;;;43.97;27.20;;;;;;;1.51;93.94;93759.53;5025391;28;20108;-40
2023/01/15 01:11:38;;;;;;;39.10;23.90;;;;;;;1.69;93.63;93758.41;5029335;28;20028;-41
2023/01/15 01:14:04;;;;;;;37.50;21.58;;;;;;;1.66;93.25;93758.63;5025259;28;20036;-40
2023/01/15 01:16:36;;;;;;;39.60;25.13;;;;;;;1.51;94.35;93754.09;5027864;28;20033;-41
2023/01/15 01:19:14;;;;;;;56.28;29.77;;;;;;;1.68;95.32;93756.94;5030585;28;20025;-41
2023/01/15 01:21:40;;;;;;;40.00;23.73;;;;;;;1.81;93.91;93761.97;5027897;28;20079;-41
2023/01/15 01:24:07;;;;;;;47.33;25.38;;;;;;;1.70;92.88;93751.00;5032334;28;20040;-41
2023/01/15 01:26:33;;;;;;;45.80;25.35;;;;;;;1.50;94.38;93752.59;5028748;28;20104;-41
2023/01/15 01:28:59;;;;;;;37.17;22.02;;;;;;;1.39;95.86;93746.28;5025808;28;20017;-40
2023/01/15 01:31:25;;;;;;;40.08;20.75;;;;;;;1.32;96.63;93742.03;5025096;28;20036;-40
2023/01/15 01:33:53;;;;;;;33.80;19.23;;;;;;;1.34;97.00;93734.13;5036287;28;20028;-40
2023/01/15 01:36:19;;;;;;;36.03;21.50;;;;;;;1.48;97.04;93740.69;5026406;28;20072;-41
2023/01/15 01:38:50;;;;;;;37.63;22.10;;;;;;;1.73;96.66;93742.63;5025780;28;20057;-41
2023/01/15 01:41:18;;;;;;;50.90;29.90;;;;;;;1.93;95.49;93747.19;5026170;28;20017;-40
2023/01/15 01:44:31;;;;;;;73.00;42.93;;;;;;;1.99;93.47;93748.72;5026706;28;20040;-40
2023/01/15 01:46:58;;;;;;;45.33;25.42;;;;;;;1.75;93.67;93755.75;4994760;28;20452;-41
2023/01/15 01:49:24;;;;;;;41.30;24.42;;;;;;;1.76;94.00;93751.78;5025378;28;20509;-40
2023/01/15 01:52:15;;;;;;;58.92;33.90;;;;;;;1.75;93.97;93750.28;5026226;28;20033;-40
2023/01/15 01:54:42;;;;;;;59.00;34.22;;;;;;;1.83;93.43;93745.88;5026058;28;20025;-40
2023/01/15 01:57:08;;;;;;;80.35;43.40;;;;;;;1.66;93.98;93737.63;5025335;28;20456;-40
2023/01/15 01:59:34;;;;;;;67.90;36.63;;;;;;;1.66;94.90;93732.19;5024639;28;20053;-40
2023/01/15 02:02:00;;;;;;;67.03;35.70;;;;;;;1.86;94.77;93729.34;5026469;28;20450;-40
2023/01/15 02:04:26;;;;;;;68.03;37.80;;;;;;;1.83;94.65;93737.72;5025773;28;20033;-41
2023/01/15 02:06:51;;;;;;;57.03;34.15;;;;;;;1.89;94.42;93743.94;5024564;28;20045;-41
2023/01/15 02:09:17;;;;;;;60.45;35.65;;;;;;;1.67;95.33;93728.22;5024013;28;20025;-41
2023/01/15 02:11:42;;;;;;;51.78;28.83;;;;;;;1.87;94.80;93736.28;5026059;28;20049;-41
2023/01/15 02:14:22;;;;;;;55.28;30.98;;;;;;;1.77;94.85;93742.38;5020588;28;20025;-41
2023/01/15 02:16:55;;;;;;;58.00;33.72;;;;;;;1.80;94.93;93734.00;5023835;28;20524;-41
2023/01/15 02:19:42;;;;;;;64.75;37.28;;;;;;;1.92;93.33;93741.00;5026611;28;20668;-41
2023/01/15 02:22:32;;;;;;;74.28;40.03;;;;;;;1.74;94.75;93743.34;5026149;28;20017;-41
2023/01/15 02:25:13;;;;;;;62.20;34.80;;;;;;;1.98;93.94;93746.47;5025348;28;20048;-41
2023/01/15 02:27:43;;;;;;;52.45;28.33;;;;;;;2.04;94.38;93734.38;5024614;28;20025;-41
2023/01/15 02:30:37;;;;;;;47.03;26.73;;;;;;;1.94;94.57;93740.53;5026803;28;20105;-41
2023/01/15 02:33:07;;;;;;;57.45;31.98;;;;;;;2.10;94.19;93742.59;5012661;28;20037;-41
2023/01/15 02:35:53;;;;;;;65.28;35.22;;;;;;;2.07;94.26;93743.56;5025269;28;20050;-41
2023/01/15 02:38:21;;;;;;;61.42;33.60;;;;;;;2.08;94.22;93739.63;5025282;28;20026;-41
2023/01/15 02:40:47;;;;;;;60.33;32.38;;;;;;;2.09;93.85;93738.38;5024344;28;20028;-41
2023/01/15 02:43:14;;;;;;;60.67;33.55;;;;;;;2.08;93.18;93739.63;5024535;28;20475;-42
2023/01/15 02:45:41;;;;;;;60.90;34.20;;;;;;;2.09;93.53;93736.41;5025857;28;20063;-41
2023/01/15 02:48:12;;;;;;;65.65;35.00;;;;;;;2.00;94.02;93733.13;5025815;28;20026;-41
2023/01/15 02:51:14;;;;;;;62.25;36.65;;;;;;;1.80;95.19;93733.25;5030574;28;20033;-41
2023/01/15 02:53:42;;;;;;;60.75;33.90;;;;;;;1.71;96.70;93738.88;5028122;28;20460;-41
2023/01/15 02:56:29;;;;;;;53.50;32.17;;;;;;;1.97;96.13;93731.38;5028083;28;20409;-41
2023/01/15 02:58:58;;;;;;;59.70;32.38;;;;;;;2.04;95.32;93733.63;5028590;28;20025;-41
2023/01/15 03:01:28;;;;;;;47.65;29.17;;;;;;;2.19;95.18;93732.25;5028397;28;20124;-41
2023/01/15 03:04:05;;;;;;;47.53;27.13;;;;;;;2.10;95.74;93729.00;5031536;28;20594;-42
2023/01/15 03:06:45;;;;;;;53.15;29.17;;;;;;;2.16;96.39;93729.75;5023485;28;20032;-42
2023/01/15 03:09:12;;;;;;;56.30;33.10;;;;;;;2.15;95.11;93733.69;5029733;28;20409;-42
2023/01/15 03:11:44;;;;;;;54.33;31.85;;;;;;;2.25;94.97;93726.84;5027950;28;20037;-41
2023/01/15 03:14:22;;;;;;;55.92;29.30;;;;;;;2.29;94.69;93732.78;5034435;28;20033;-42
2023/01/15 03:16:53;;;;;;;68.78;34.72;;;;;;;2.27;94.12;93735.97;5024964;28;20042;-41
2023/01/15 03:19:21;;;;;;;66.18;33.78;;;;;;;2.18;94.38;93740.91;5028488;28;20029;-40
2023/01/15 03:22:08;;;;;;;88.78;42.95;;;;;;;2.18;94.36;93746.34;5033181;28;20025;-40
2023/01/15 03:24:45;;;;;;;83.10;41.38;;;;;;;2.10;94.63;93742.59;5028314;28;20039;-41
2023/01/15 03:27:11;;;;;;;77.72;41.22;;;;;;;1.95;95.50;93742.03;5028409;28;20032;-40
2023/01/15 03:29:40;;;;;;;74.75;39.22;;;;;;;1.85;96.42;93737.97;5029468;28;20037;-41
2023/01/15 03:32:05;;;;;;;60.47;35.40;;;;;;;1.86;96.91;93736.75;5028284;28;20053;-41
2023/01/15 03:34:37;;;;;;;60.58;31.55;;;;;;;1.79;97.85;93740.69;5037065;28;20052;-41
2023/01/15 03:37:04;;;;;;;60.53;32.83;;;;;;;1.85;97.89;93732.53;5032894;28;20560;-41
2023/01/15 03:39:29;;;;;;;49.35;29.73;;;;;;;1.87;97.70;93732.78;5033634;28;20045;-41
2023/01/15 03:42:31;;;;;;;47.97;26.70;;;;;;;1.82;98.24;93733.53;5030939;28;20141;-41
2023/01/15 03:45:03;;;;;;;49.90;24.50;;;;;;;1.76;99.22;93738.16;5027612;28;20052;-41
2023/01/15 03:47:57;;;;;;;48.90;28.20;;;;;;;1.77;99.67;93732.25;5028179;28;20068;-41
2023/01/15 03:50:22;;;;;;;45.65;24.95;;;;;;;1.77;100.00;93742.38;5011229;28;20033;-42
2023/01/15 03:53:03;;;;;;;43.45;26.15;;;;;;;1.97;99.81;93739.56;5028092;28;20663;-41
2023/01/15 03:55:56;;;;;;;39.22;22.65;;;;;;;2.08;99.00;93743.06;5026649;28;20041;-41
2023/01/15 03:58:33;;;;;;;59.90;30.15;;;;;;;2.11;98.64;93741.34;5025289;28;20026;-41
2023/01/15 04:01:01;;;;;;;72.90;34.63;;;;;;;2.26;97.17;93739.97;5027714;28;20022;-40
2023/01/15 04:03:27;;;;;;;81.00;39.08;;;;;;;2.31;96.74;93741.22;5027109;28;20160;-41
2023/01/15 04:05:56;;;;;;;77.15;37.45;;;;;;;2.46;95.92;93743.75;5028254;28;20029;-41
2023/01/15 04:08:22;;;;;;;73.90;40.22;;;;;;;2.39;95.19;93747.69;5027148;28;20022;-41
2023/01/15 04:10:55;;;;;;;81.07;40.83;;;;;;;2.49;94.38;93748.25;5028240;28;20051;-40
2023/01/15 04:13:21;;;;;;;75.95;40.00;;;;;;;2.55;93.70;93744.31;5028513;28;20106;-41
2023/01/15 04:15:46;;;;;;;72.03;39.85;;;;;;;2.38;94.09;93742.75;5028391;28;20505;-41
2023/01/15 04:18:12;;;;;;;71.78;36.30;;;;;;;2.41;95.02;93742.50;5033787;28;20057;-40
2023/01/15 04:20:37;;;;;;;61.95;33.22;;;;;;;2.47;94.88;93740.53;5030908;28;20025;-41
2023/01/15 04:23:03;;;;;;;61.65;33.83;;;;;;;2.58;94.49;93742.59;5027134;28;20018;-41
2023/01/15 04:25:28;;;;;;;55.88;30.08;;;;;;;2.45;94.09;93737.56;5027503;28;20033;-40
2023/01/15 04:27:54;;;;;;;64.78;34.05;;;;;;;2.52;94.21;93742.53;5027608;28;20029;-41
2023/01/15 04:30:20;;;;;;;68.22;34.25;;;;;;;2.39;94.58;93750.41;5028314;28;20037;-41
2023/01/15 04:32:49;;;;;;;61.80;35.53;;;;;;;2.57;94.70;93754.72;5027807;28;20029;-40
2023/01/15 04:35:15;;;;;;;63.97;33.45;;;;;;;2.57;94.59;93750.00;5032692;28;20140;-41
2023/01/15 04:37:41;;;;;;;74.28;37.20;;;;;;;2.59;94.56;93747.53;5031027;28;20033;-41
2023/01/15 04:40:07;;;;;;;76.97;41.38;;;;;;;2.50;93.90;93747.75;5027730;28;20034;-41
2023/01/15 04:45:17;;;;;;;79.78;42.47;;;;;;;2.52;94.55;93748.00;5024781;28;20037;-41
2023/01/15 04:47:42;;;;;;;77.53;41.53;;;;;;;2.53;94.06;93754.94;5024817;28;20033;-41
2023/01/15 04:50:09;;;;;;;79.13;43.05;;;;;;;2.51;94.78;93762.88;5030328;28;20111;-41
2023/01/15 04:52:35;;;;;;;87.55;47.30;;;;;;;2.50;95.19;93758.63;5028308;28;20021;-41
2023/01/15 04:55:00;;;;;;;77.63;40.42;;;;;;;2.65;94.18;93758.44;5031086;28;20027;-41
2023/01/15 04:57:26;;;;;;;71.78;39.13;;;;;;;2.42;94.87;93757.63;5026482;28;20025;-41
2023/01/15 04:59:51;;;;;;;64.68;37.88;;;;;;;2.49;95.10;93759.88;5029694;28;20083;-41
2023/01/15 05:02:16;;;;;;;83.40;44.70;;;;;;;2.40;94.75;93760.09;5026600;28;20029;-41
2023/01/15 05:04:42;;;;;;;69.25;38.15;;;;;;;2.28;95.46;93753.09;5029530;28;20029;-41
2023/01/15 05:07:08;;;;;;;71.45;38.92;;;;;;;2.44;95.49;93755.16;5026646;28;20018;-41
2023/01/15 05:09:34;;;;;;;70.90;37.28;;;;;;;2.30;95.51;93759.53;5027140;28;20025;-41
2023/01/15 05:11:59;;;;;;;74.57;40.15;;;;;;;2.25;96.08;93759.53;5027616;28;20029;-41
2023/01/15 05:14:25;;;;;;;71.00;39.22;;;;;;;2.27;96.63;93762.50;5027249;28;20028;-41
2023/01/15 05:16:50;;;;;;;66.57;39.50;;;;;;;2.47;95.63;93756.88;5030535;28;20025;-41
2023/01/15 05:19:16;;;;;;;67.72;39.30;;;;;;;2.52;95.14;93752.69;5024670;28;20025;-41
2023/01/15 05:21:43;;;;;;;73.72;41.83;;;;;;;2.21;96.20;93758.97;5031766;28;20789;-41
2023/01/15 05:24:13;;;;;;;73.72;41.05;;;;;;;2.34;97.17;93744.94;5026123;28;20028;-41
2023/01/15 05:26:39;;;;;;;71.60;38.42;;;;;;;2.50;96.14;93755.16;5031596;28;20048;-41
2023/01/15 05:29:05;;;;;;;73.22;41.50;;;;;;;2.63;95.11;93758.94;5021958;28;20342;-40
2023/01/15 05:31:32;;;;;;;72.50;40.97;;;;;;;2.48;95.16;93750.22;5029471;28;20037;-40
2023/01/15 05:33:58;;;;;;;79.95;42.97;;;;;;;2.57;94.99;93746.53;5026188;28;20100;-41
2023/01/15 05:36:27;;;;;;;78.88;42.47;;;;;;;2.44;95.10;93748.94;5026352;28;20056;-40
2023/01/15 05:38:53;;;;;;;77.35;43.28;;;;;;;2.53;95.30;93749.50;5032284;28;20033;-40
2023/01/15 05:44:09;;;;;;;74.00;39.83;;;;;;;2.34;96.63;93751.13;5027152;28;20044;-40
2023/01/15 05:46:37;;;;;;;83.68;43.97;;;;;;;2.43;96.42;93750.94;5031504;28;20029;-40
2023/01/15 05:49:04;;;;;;;80.82;44.80;;;;;;;2.58;95.87;93746.03;5031443;28;20021;-40
2023/01/15 05:51:30;;;;;;;79.10;43.50;;;;;;;2.52;95.80;93753.44;5020128;28;20025;-40
2023/01/15 05:53:56;;;;;;;79.53;45.97;;;;;;;2.43;94.86;93745.47;5026637;28;20476;-41
2023/01/15 05:56:22;;;;;;;77.97;45.38;;;;;;;2.49;95.21;93743.50;5023288;28;20718;-40
2023/01/15 05:58:47;;;;;;;78.57;41.10;;;;;;;2.49;95.40;93751.69;5026706;28;20029;-40
2023/01/15 06:01:14;;;;;;;73.88;39.20;;;;;;;2.52;95.23;93755.41;5026610;28;20033;-40
2023/01/15 06:03:40;;;;;;;59.67;33.60;;;;;;;2.60;94.06;93759.19;5026733;28;20029;-40
2023/01/15 06:06:06;;;;;;;81.80;43.85;;;;;;;2.58;94.07;93762.38;5027266;28;20095;-41
2023/01/15 06:08:31;;;;;;;71.10;36.50;;;;;;;2.67;94.34;93756.72;5024926;28;20029;-40
2023/01/15 06:10:57;;;;;;;69.70;34.97;;;;;;;2.57;94.68;93763.63;5031743;28;20028;-41
2023/01/15 06:13:22;;;;;;;70.30;39.10;;;;;;;2.65;94.78;93756.47;5027657;28;20468;-40
2023/01/15 06:15:48;;;;;;;68.95;37.88;;;;;;;2.70;95.24;93752.28;5029538;28;20017;-41
2023/01/15 06:18:13;;;;;;;59.60;29.35;;;;;;;2.78;94.36;93756.00;5023044;28;20037;-40
2023/01/15 06:20:40;;;;;;;44.45;25.42;;;;;;;2.86;93.65;93757.03;5027129;28;20029;-40
2023/01/15 06:23:06;;;;;;;51.05;25.15;;;;;;;2.79;93.14;93752.06;5029164;28;20029;-41
2023/01/15 06:25:35;;;;;;;37.85;20.45;;;;;;;2.88;93.30;93760.75;5032101;28;20029;-41
2023/01/15 06:28:05;;;;;;;64.35;34.05;;;;;;;2.65;94.05;93766.63;5029787;28;20028;-41
2023/01/15 06:30:31;;;;;;;81.22;40.90;;;;;;;2.49;95.28;93759.13;5032415;28;20033;-41
2023/01/15 06:32:56;;;;;;;66.15;36.00;;;;;;;2.36;96.62;93756.84;5029549;28;20021;-41
2023/01/15 06:35:22;;;;;;;66.80;35.13;;;;;;;2.34;96.65;93751.13;5024486;28;20048;-41
2023/01/15 06:37:50;;;;;;;58.83;32.92;;;;;;;2.40;97.29;93751.91;5029851;28;20508;-40
2023/01/15 06:40:16;;;;;;;57.53;32.40;;;;;;;2.44;97.44;93749.69;5029839;28;20033;-41
2023/01/15 06:48:10;;;;;;;35.60;21.50;;;;;;;2.95;94.30;93757.56;5029297;28;20044;-41
2023/01/15 06:50:35;;;;;;;30.38;18.90;;;;;;;3.16;93.15;93765.56;5032204;28;20033;-42
2023/01/15 06:53:00;;;;;;;57.22;33.15;;;;;;;3.15;92.91;93761.31;5030073;28;20036;-41
2023/01/15 06:55:26;;;;;;;152.35;78.65;;;;;;;3.20;93.54;93766.06;5029926;28;20103;-41
2023/01/15 06:57:51;;;;;;;188.23;90.20;;;;;;;3.40;92.80;93771.31;5029442;28;20033;-42
2023/01/15 07:00:17;;;;;;;76.40;42.53;;;;;;;3.51;92.22;93774.03;5030702;28;20033;-42
2023/01/15 07:02:43;;;;;;;68.95;42.00;;;;;;;3.49;91.75;93774.53;5033782;28;20061;-42
2023/01/15 07:05:08;;;;;;;70.80;39.58;;;;;;;3.47;91.01;93755.16;5024708;28;20042;-41
2023/01/15 07:07:34;;;;;;;54.40;30.33;;;;;;;3.72;89.35;93761.63;5032584;28;20475;-41
2023/01/15 07:09:59;;;;;;;73.32;40.22;;;;;;;3.92;88.29;93750.44;5028625;28;20116;-41
2023/01/15 07:12:25;;;;;;;68.20;42.42;;;;;;;3.92;88.29;93763.38;5028495;28;20516;-41
2023/01/15 07:14:51;;;;;;;50.63;28.92;;;;;;;3.85;86.97;93754.41;5029739;28;20065;-41
2023/01/15 07:17:16;;;;;;;49.25;27.95;;;;;;;3.93;86.37;93759.38;5030102;28;20030;-41
2023/01/15 07:19:41;;;;;;;61.78;32.92;;;;;;;3.98;86.05;93759.38;5024862;28;20038;-41
2023/01/15 07:22:08;;;;;;;63.80;33.22;;;;;;;4.05;86.22;93760.88;5024484;28;20041;-42
2023/01/15 07:24:33;;;;;;;42.95;25.80;;;;;;;4.02;86.26;93754.41;5022463;28;20029;-41
2023/01/15 07:26:59;;;;;;;46.45;25.23;;;;;;;4.14;86.86;93750.41;5023024;28;20515;-41
2023/01/15 07:29:24;;;;;;;34.03;18.73;;;;;;;3.93;85.54;93745.72;5028470;28;20136;-47
2023/01/15 07:31:50;;;;;;;35.42;21.35;;;;;;;3.85;86.59;93773.53;5022334;28;20029;-41
2023/01/15 07:34:16;;;;;;;39.13;20.45;;;;;;;3.91;86.53;93772.78;5022467;28;20029;-41
2023/01/15 07:36:41;;;;;;;34.50;20.20;;;;;;;3.91;86.25;93759.88;5022805;28;20058;-41
2023/01/15 07:39:08;;;;;;;32.38;19.38;;;;;;;3.95;85.55;93749.44;5022056;28;20036;-41
2023/01/15 07:49:47;;;;;;;24.70;15.77;;;;;;;3.76;85.72;93767.59;5017340;28;20121;-41
2023/01/15 07:52:18;;;;;;;27.15;15.65;;;;;;;3.75;86.30;93760.63;5012907;28;20059;-41
2023/01/15 07:54:44;;;;;;;28.75;15.90;;;;;;;3.55;87.30;93758.16;5012156;28;20041;-41
2023/01/15 07:57:10;;;;;;;31.92;19.80;;;;;;;3.82;87.59;93760.13;5015969;28;20036;-42
2023/01/15 07:59:36;;;;;;;30.65;18.33;;;;;;;4.06;85.06;93760.38;5012912;28;20033;-42
2023/01/15 08:02:02;;;;;;;24.92;15.15;;;;;;;4.18;84.54;93770.03;5012344;28;20083;-42
2023/01/15 08:04:27;;;;;;;28.00;17.30;;;;;;;4.06;85.76;93768.56;5021013;28;20429;-41
2023/01/15 08:06:53;;;;;;;24.15;15.15;;;;;;;4.04;85.44;93776.50;5026917;28;20033;-42
2023/01/15 08:09:18;;;;;;;28.52;16.45;;;;;;;4.07;85.95;93767.31;5027566;28;20479;-42
2023/01/15 08:17:12;;;;;;;28.52;16.65;;;;;;;4.30;85.04;93776.22;5026208;28;20044;-39
2023/01/15 08:19:37;;;;;;;24.15;15.02;;;;;;;4.35;83.97;93781.66;5026681;28;20033;-39
2023/01/15 08:22:03;;;;;;;31.25;19.08;;;;;;;4.41;83.16;93785.16;5028881;28;20040;-39
2023/01/15 08:24:28;;;;;;;35.60;19.80;;;;;;;4.29;84.87;93783.66;5026432;28;20031;-39
2023/01/15 08:26:54;;;;;;;25.10;15.30;;;;;;;4.13;84.12;93780.97;5026371;28;20025;-40
2023/01/15 08:29:20;;;;;;;31.17;16.60;;;;;;;3.94;85.71;93777.28;5025565;28;20116;-40
2023/01/15 08:31:45;;;;;;;28.48;14.73;;;;;;;4.06;85.34;93790.41;5025764;28;20041;-41
2023/01/15 08:34:11;;;;;;;28.77;18.50;;;;;;;4.18;84.43;93780.94;5024396;28;20033;-41
2023/01/15 08:36:36;;;;;;;28.85;18.50;;;;;;;4.05;84.46;93774.53;5026579;28;20056;-40
2023/01/15 08:39:02;;;;;;;29.77;18.33;;;;;;;4.10;84.16;93773.75;5025849;28;20033;-40
2023/01/15 08:41:28;;;;;;;29.08;18.02;;;;;;;4.01;84.33;93779.47;5026905;28;20090;-42
2023/01/15 08:43:53;;;;;;;29.75;17.90;;;;;;;4.17;84.59;93779.47;5023248;28;20037;-42
2023/01/15 08:46:19;;;;;;;26.85;16.65;;;;;;;4.15;83.11;93784.69;5025824;28;20453;-42
2023/01/15 08:48:44;;;;;;;37.30;20.98;;;;;;;4.21;83.59;93779.22;5026197;28;20131;-42
2023/01/15 08:51:10;;;;;;;30.92;18.02;;;;;;;4.23;83.28;93774.75;5031538;28;20474;-42
2023/01/15 08:53:37;;;;;;;20.65;13.77;;;;;;;4.34;83.19;93780.19;5024235;28;20032;-43
2023/01/15 08:56:03;;;;;;;23.48;15.98;;;;;;;4.42;82.95;93781.16;5032246;28;20033;-44
2023/01/15 08:58:30;;;;;;;23.75;12.60;;;;;;;4.45;83.00;93782.91;5027022;28;20031;-43
2023/01/15 09:00:55;;;;;;;19.45;11.82;;;;;;;4.49;81.96;93786.13;5027713;28;20032;-45
2023/01/15 09:03:21;;;;;;;24.23;14.07;;;;;;;4.66;81.90;93780.59;5025687;28;20041;-44
2023/01/15 09:05:47;;;;;;;21.73;12.85;;;;;;;4.42;82.96;93791.34;5022503;28;20033;-43
2023/01/15 09:08:12;;;;;;;23.52;12.10;;;;;;;4.36;82.56;93774.97;5023246;28;20098;-42
2023/01/15 09:10:37;;;;;;;19.98;11.75;;;;;;;4.27;84.78;93777.97;5024521;28;20036;-45
2023/01/15 09:13:03;;;;;;;18.92;11.07;;;;;;;4.32;84.26;93777.22;5017655;28;20492;-42
2023/01/15 09:15:30;;;;;;;17.80;10.38;;;;;;;4.41;83.19;93778.94;5018590;28;20033;-42
2023/01/15 09:17:57;;;;;;;19.10;11.68;;;;;;;4.24;84.47;93772.75;5018356;28;20647;-43
2023/01/15 09:20:22;;;;;;;13.73;9.65;;;;;;;4.43;83.55;93769.00;5018687;28;20493;-43
2023/01/15 09:22:48;;;;;;;13.40;8.82;;;;;;;4.49;83.12;93763.50;5021374;28;20032;-43
2023/01/15 09:25:18;;;;;;;19.15;10.38;;;;;;;4.51;83.39;93764.47;5016494;28;20025;-43
2023/01/15 09:27:45;;;;;;;31.23;17.60;;;;;;;4.51;83.87;93756.28;5017373;28;20036;-44
2023/01/15 09:30:16;;;;;;;19.98;12.02;;;;;;;4.34;83.84;93757.56;5021374;28;20030;-43
2023/01/15 09:32:41;;;;;;;13.95;8.05;;;;;;;4.57;82.71;93759.72;5024900;28;20746;-42
2023/01/15 09:35:07;;;;;;;36.53;30.58;;;;;;;4.54;82.87;93754.53;5024849;28;20132;-42
2023/01/15 09:37:33;;;;;;;19.88;11.68;;;;;;;4.53;82.17;93733.91;5023131;28;20202;-42
2023/01/15 09:40:01;;;;;;;11.52;7.28;;;;;;;4.59;81.39;93738.09;5024231;28;20029;-45
2023/01/15 09:42:35;;;;;;;14.27;8.45;;;;;;;4.63;81.20;93746.06;5017583;28;20034;-44
2023/01/15 09:45:10;;;;;;;18.35;10.27;;;;;;;4.61;82.53;93748.56;5024039;28;20830;-42
2023/01/15 09:47:39;;;;;;;17.00;10.52;;;;;;;4.74;81.19;93739.78;5024277;28;20083;-42
2023/01/15 09:50:22;;;;;;;14.98;8.98;;;;;;;4.51;82.30;93731.69;5027869;28;20021;-42
2023/01/15 09:53:20;;;;;;;13.80;8.85;;;;;;;4.61;81.49;93732.88;5024837;28;20029;-41
2023/01/15 09:55:47;;;;;;;15.27;7.33;;;;;;;4.42;82.23;93731.94;4997197;28;20045;-42
2023/01/15 09:58:16;;;;;;;15.07;9.63;;;;;;;4.34;82.54;93725.53;5026741;28;20041;-41
2023/01/15 10:00:45;;;;;;;12.25;8.77;;;;;;;4.64;82.07;93725.66;5024819;28;20607;-41
2023/01/15 10:03:34;;;;;;;12.90;8.75;;;;;;;4.68;81.42;93722.69;5023204;28;20041;-41
2023/01/15 10:06:15;;;;;;;12.65;7.60;;;;;;;4.92;80.40;93714.56;5019370;28;20033;-42
2023/01/15 10:08:45;;;;;;;13.20;7.72;;;;;;;4.85;79.96;93712.41;5025747;28;20033;-41
2023/01/15 10:11:22;;;;;;;11.15;7.72;;;;;;;4.71;80.64;93718.91;5023308;28;20041;-42
2023/01/15 10:14:07;;;;;;;11.65;7.68;;;;;;;4.82;79.72;93705.19;5022118;28;20051;-42
2023/01/15 10:16:32;;;;;;;11.50;7.18;;;;;;;4.74;79.56;93699.53;5022366;28;20501;-42
2023/01/15 10:19:01;;;;;;;9.27;6.75;;;;;;;4.69;79.97;93703.00;5022724;28;20060;-44
2023/01/15 10:21:29;;;;;;;9.55;6.68;;;;;;;4.72;80.33;93702.00;5013883;28;20041;-40
2023/01/15 10:23:55;;;;;;;17.25;7.28;;;;;;;4.67;80.78;93683.63;5018206;28;20025;-41
2023/01/15 10:26:41;;;;;;;10.70;6.03;;;;;;;4.76;79.28;93682.59;5014674;28;20041;-47
2023/01/15 10:29:42;;;;;;;7.97;5.43;;;;;;;4.73;79.59;93681.63;5016638;28;20032;-41
2023/01/15 10:32:44;;;;;;;7.90;5.22;;;;;;;5.00;77.92;93677.25;5024892;28;20029;-42
2023/01/15 10:35:30;;;;;;;11.02;7.05;;;;;;;4.82;79.34;93670.38;5023876;28;20059;-41
2023/01/15 10:38:34;;;;;;;8.50;5.65;;;;;;;4.98;78.66;93672.25;5020971;28;20021;-42
2023/01/15 10:41:30;;;;;;;9.95;6.18;;;;;;;5.12;78.63;93671.19;5011349;28;20045;-42
2023/01/15 10:44:05;;;;;;;8.57;5.88;;;;;;;5.15;77.90;93651.03;5021616;28;20686;-41
2023/01/15 10:46:37;;;;;;;7.50;5.13;;;;;;;5.22;78.21;93649.69;5020192;28;20535;-41
2023/01/15 10:49:25;;;;;;;9.00;5.40;;;;;;;5.47;77.04;93648.53;5015454;28;20513;-41
2023/01/15 10:51:57;;;;;;;9.07;5.65;;;;;;;5.67;76.91;93639.13;5017766;28;20612;-40
2023/01/15 10:54:28;;;;;;;7.68;4.80;;;;;;;5.71;75.34;93645.06;5020342;28;20037;-41
2023/01/15 10:57:00;;;;;;;8.38;4.97;;;;;;;5.61;74.93;93635.72;5018348;28;20076;-41
2023/01/15 10:59:40;;;;;;;6.68;4.72;;;;;;;5.59;76.11;93630.00;5017991;28;20030;-41
2023/01/15 11:02:24;;;;;;;8.48;5.28;;;;;;;5.16;77.82;93627.84;5015681;28;20033;-41
2023/01/15 11:04:50;;;;;;;8.43;5.07;;;;;;;5.34;75.66;93616.28;5018960;28;20045;-41
2023/01/15 11:07:16;;;;;;;7.03;5.00;;;;;;;5.22;76.72;93614.13;5022124;28;20420;-41
2023/01/15 11:09:41;;;;;;;9.43;6.30;;;;;;;5.42;75.55;93615.69;5023305;28;20171;-41
2023/01/15 11:20:31;;;;;;;6.13;4.20;;;;;;;5.68;73.81;93608.47;5021908;28;20032;-42
2023/01/15 11:23:19;;;;;;;10.25;5.10;;;;;;;5.15;75.25;93607.22;5025411;28;20029;-42
2023/01/15 11:26:03;;;;;;;7.28;4.93;;;;;;;5.14;76.79;93605.72;5024186;28;20402;-41
2023/01/15 11:28:35;;;;;;;8.93;5.18;;;;;;;5.17;76.08;93607.47;5019634;28;20024;-41
2023/01/15 11:31:01;;;;;;;6.40;4.60;;;;;;;5.11;75.59;93606.75;5024485;28;20056;-41
2023/01/15 11:33:28;;;;;;;8.73;5.13;;;;;;;5.47;75.83;93612.91;5024983;28;20487;-42
2023/01/15 11:35:57;;;;;;;6.43;4.32;;;;;;;5.49;74.96;93596.72;5021252;28;20533;-43
2023/01/15 11:38:23;;;;;;;7.53;4.38;;;;;;;5.60;73.94;93595.88;5022657;28;20044;-42
2023/01/15 11:40:58;;;;;;;11.00;6.95;;;;;;;5.72;72.74;93594.50;5026140;28;20500;-41
2023/01/15 11:52:16;;;;;;;5.93;4.20;;;;;;;5.59;71.27;93578.69;5026447;28;20064;-41
2023/01/15 11:54:44;;;;;;;8.90;4.80;;;;;;;5.97;71.17;93571.34;5020624;28;20029;-42
2023/01/15 11:57:11;;;;;;;6.72;4.50;;;;;;;6.01;69.98;93578.03;5027406;28;20043;-41
2023/01/15 11:59:36;;;;;;;5.88;3.88;;;;;;;5.97;69.44;93566.63;5025650;28;20731;-42
2023/01/15 12:02:31;;;;;;;4.40;3.00;;;;;;;6.13;68.03;93569.69;5018370;28;20033;-42
2023/01/15 12:04:59;;;;;;;7.50;4.93;;;;;;;5.87;70.91;93568.22;5024264;28;20517;-42
2023/01/15 12:07:25;;;;;;;6.85;4.78;;;;;;;5.82;71.56;93563.53;5031823;28;20100;-42
2023/01/15 12:11:05;;;;;;;12.68;4.65;;;;;;;5.79;71.71;93561.06;5026362;28;20018;-42
2023/01/15 12:13:25;;;;;;;6.30;3.95;;;;;;;5.74;70.94;93540.69;5021059;28;20512;-41
2023/01/15 12:16:13;;;;;;;12.20;5.30;;;;;;;5.89;71.42;93559.50;5024902;28;20087;-41
2023/01/15 12:18:58;;;;;;;4.10;2.97;;;;;;;5.84;70.15;93552.06;5019467;28;20046;-42
2023/01/15 12:21:27;;;;;;;5.15;3.83;;;;;;;5.82;70.08;93560.03;5020398;28;20087;-41
2023/01/15 12:24:01;;;;;;;;;;;;;;;6.03;69.25;93555.56;5016910;28;20033;-41
2023/01/15 12:26:29;;;;;;;3.00;2.70;;;;;;;5.70;69.45;93551.19;5018729;28;19921;-42